createdAt,value
2023-02-26T00:00:01.880Z,100.00
2023-02-26T00:05:09.393Z,100.00
2023-02-26T00:10:16.658Z,100.00
2023-02-26T00:15:23.930Z,100.00
2023-02-26T00:20:30.666Z,100.00
2023-02-26T00:25:36.563Z,100.00
2023-02-26T00:30:43.896Z,100.00
2023-02-26T00:35:54.475Z,100.00
2023-02-26T00:41:01.069Z,100.00
2023-02-26T00:46:21.112Z,100.00
2023-02-26T00:51:31.982Z,100.00
2023-02-26T00:56:37.742Z,100.00
2023-02-26T01:01:43.854Z,100.00
2023-02-26T01:06:52.750Z,100.00
2023-02-26T01:12:02.724Z,100.00
2023-02-26T01:17:15.336Z,100.00
2023-02-26T01:22:23.920Z,100.00
2023-02-26T01:27:30.117Z,100.00
2023-02-26T01:32:45.220Z,100.00
2023-02-26T01:37:57.603Z,100.00
2023-02-26T01:43:08.006Z,100.00
2023-02-26T01:48:26.990Z,100.00
2023-02-26T01:53:34.305Z,100.00
2023-02-26T01:58:40.575Z,100.00
2023-02-26T02:03:47.189Z,100.00
2023-02-26T02:08:53.177Z,100.00
2023-02-26T02:14:10.896Z,100.00
2023-02-26T02:19:34.379Z,100.00
2023-02-26T02:24:51.380Z,100.00
2023-02-26T02:30:11.094Z,100.00
2023-02-26T02:35:21.634Z,100.00
2023-02-26T02:40:32.333Z,100.00
2023-02-26T02:45:42.658Z,100.00
2023-02-26T02:50:52.191Z,100.00
2023-02-26T02:56:04.849Z,100.00
2023-02-26T03:01:15.477Z,100.00
2023-02-26T03:06:22.016Z,100.00
2023-02-26T03:11:29.131Z,100.00
2023-02-26T03:16:49.652Z,100.00
2023-02-26T03:22:02.420Z,100.00
2023-02-26T03:27:34.913Z,100.00
2023-02-26T03:32:50.502Z,100.00
2023-02-26T03:38:02.057Z,98.88
2023-02-26T03:43:14.736Z,98.30
2023-02-26T03:48:25.009Z,98.06
2023-02-26T03:53:36.527Z,97.76
2023-02-26T03:58:50.101Z,97.31
2023-02-26T04:04:15.185Z,97.38
2023-02-26T04:09:21.977Z,96.98
2023-02-26T04:14:28.575Z,96.96
2023-02-26T04:19:34.577Z,96.64
2023-02-26T04:24:40.948Z,97.02
2023-02-26T04:29:47.322Z,97.39
2023-02-26T04:34:53.208Z,97.75
2023-02-26T04:39:59.814Z,97.87
2023-02-26T04:45:07.482Z,98.19
2023-02-26T04:50:15.428Z,98.16
2023-02-26T04:55:23.564Z,97.62
2023-02-26T05:00:29.860Z,96.24
2023-02-26T05:05:36.973Z,96.45
2023-02-26T05:10:43.595Z,96.63
2023-02-26T05:15:49.332Z,96.72
2023-02-26T05:20:56.875Z,96.64
2023-02-26T05:26:03.131Z,96.90
2023-02-26T05:31:09.837Z,97.69
2023-02-26T05:36:15.660Z,98.33
2023-02-26T05:41:21.692Z,98.32
2023-02-26T05:46:28.076Z,98.28
2023-02-26T05:51:34.241Z,97.46
2023-02-26T05:56:39.870Z,95.57
2023-02-26T06:01:45.584Z,94.10
2023-02-26T06:06:51.582Z,92.87
2023-02-26T06:11:57.614Z,91.75
2023-02-26T06:17:04.420Z,91.10
2023-02-26T06:22:11.316Z,90.69
2023-02-26T06:27:17.452Z,89.59
2023-02-26T06:32:23.266Z,89.16
2023-02-26T06:37:29.073Z,88.49
2023-02-26T06:42:34.959Z,88.05
2023-02-26T06:47:40.825Z,87.90
2023-02-26T06:52:46.413Z,87.53
2023-02-26T06:57:53.188Z,87.48
2023-02-26T07:02:59.478Z,88.08
2023-02-26T07:08:06.988Z,87.33
2023-02-26T07:13:13.492Z,86.30
2023-02-26T07:18:19.514Z,85.54
2023-02-26T07:23:25.448Z,85.22
2023-02-26T07:28:31.634Z,84.03
2023-02-26T07:33:38.717Z,83.25
2023-02-26T07:38:44.395Z,82.61
2023-02-26T07:43:50.633Z,81.94
2023-02-26T07:48:56.365Z,81.33
2023-02-26T07:54:03.268Z,81.28
2023-02-26T07:59:10.007Z,79.95
2023-02-26T08:04:16.251Z,80.38
2023-02-26T08:09:22.421Z,80.21
2023-02-26T08:14:28.290Z,79.21
2023-02-26T08:19:34.998Z,79.64
2023-02-26T08:24:41.887Z,79.25
2023-02-26T08:29:50.434Z,78.69
2023-02-26T08:34:57.362Z,79.05
2023-02-26T08:40:04.143Z,79.08
2023-02-26T08:45:11.781Z,79.08
2023-02-26T08:50:18.046Z,79.16
2023-02-26T08:55:24.142Z,78.90
2023-02-26T09:00:30.558Z,78.64
2023-02-26T09:05:36.762Z,78.02
2023-02-26T09:10:43.373Z,77.39
2023-02-26T09:15:50.618Z,77.02
2023-02-26T09:20:57.029Z,77.60
2023-02-26T09:26:02.803Z,77.51
2023-02-26T09:31:09.045Z,77.66
2023-02-26T09:36:15.232Z,77.48
2023-02-26T09:41:26.537Z,77.50
2023-02-26T09:46:40.893Z,77.96
2023-02-26T09:51:50.656Z,78.38
2023-02-26T09:57:00.223Z,78.64
2023-02-26T10:02:17.102Z,78.90
2023-02-26T10:07:35.170Z,78.87
2023-02-26T10:12:44.869Z,78.91
2023-02-26T10:18:03.186Z,78.67
2023-02-26T10:23:24.195Z,79.28
2023-02-26T10:28:43.929Z,79.27
2023-02-26T10:33:58.178Z,79.51
2023-02-26T10:39:13.614Z,79.32
2023-02-26T10:44:25.098Z,78.07
2023-02-26T10:49:54.680Z,77.09
2023-02-26T10:55:16.003Z,76.20
2023-02-26T11:00:23.312Z,75.51
2023-02-26T11:05:31.172Z,75.25
2023-02-26T11:10:44.867Z,74.60
2023-02-26T11:15:53.746Z,74.25
2023-02-26T11:21:01.034Z,73.65
2023-02-26T11:26:14.438Z,71.44
2023-02-26T11:31:23.843Z,70.03
2023-02-26T11:36:34.852Z,68.94
2023-02-26T11:41:42.295Z,68.85
2023-02-26T11:46:55.298Z,68.97
2023-02-26T11:52:17.007Z,68.20
2023-02-26T11:57:29.184Z,67.94
2023-02-26T12:02:40.248Z,68.35
2023-02-26T12:07:48.831Z,67.91
2023-02-26T12:13:08.494Z,67.72
2023-02-26T12:18:37.683Z,68.53
2023-02-26T12:24:19.042Z,69.36
2023-02-26T12:29:48.821Z,70.10
2023-02-26T12:35:18.964Z,70.23
2023-02-26T12:40:50.852Z,70.65
2023-02-26T12:46:06.968Z,69.74
2023-02-26T12:51:26.199Z,68.62
2023-02-26T12:56:56.925Z,67.68
2023-02-26T13:02:38.355Z,66.96
2023-02-26T13:08:18.705Z,67.16
2023-02-26T13:13:51.924Z,66.47
2023-02-26T13:19:08.126Z,66.25
2023-02-26T13:24:19.454Z,64.63
2023-02-26T13:29:25.050Z,63.75
2023-02-26T13:34:40.696Z,63.91
2023-02-26T13:39:54.173Z,64.50
2023-02-26T13:45:18.699Z,64.11
2023-02-26T13:50:33.165Z,63.64
2023-02-26T13:55:43.622Z,63.60
2023-02-26T14:01:04.323Z,63.59
2023-02-26T14:06:25.901Z,64.01
2023-02-26T14:12:01.271Z,64.10
2023-02-26T14:17:31.913Z,63.63
2023-02-26T14:22:43.275Z,63.49
2023-02-26T14:27:50.185Z,63.09
2023-02-26T14:33:19.412Z,63.44
2023-02-26T14:38:28.716Z,63.24
2023-02-26T14:43:39.745Z,63.68
2023-02-26T14:48:46.908Z,63.83
2023-02-26T14:54:10.223Z,63.77
2023-02-26T14:59:33.457Z,63.89
2023-02-26T15:05:12.213Z,64.75
2023-02-26T15:10:31.237Z,65.10
2023-02-26T15:15:45.676Z,65.41
2023-02-26T15:21:03.843Z,65.96
2023-02-26T15:26:17.961Z,66.48
2023-02-26T15:31:32.022Z,66.84
2023-02-26T15:36:43.220Z,67.22
2023-02-26T15:41:51.191Z,67.57
2023-02-26T15:47:01.281Z,68.98
2023-02-26T15:52:11.032Z,70.92
2023-02-26T15:57:18.603Z,71.52
2023-02-26T16:02:30.719Z,72.39
2023-02-26T16:07:36.691Z,73.42
2023-02-26T16:12:49.188Z,74.00
2023-02-26T16:17:58.664Z,74.27
2023-02-26T16:23:07.465Z,74.91
2023-02-26T16:28:19.179Z,76.77
2023-02-26T16:33:26.761Z,78.38
2023-02-26T16:38:44.263Z,80.52
2023-02-26T16:43:58.001Z,81.48
2023-02-26T16:49:10.616Z,82.39
2023-02-26T16:54:22.775Z,83.26
2023-02-26T16:59:32.773Z,83.92
2023-02-26T17:04:39.407Z,84.30
2023-02-26T17:09:50.525Z,84.99
2023-02-26T17:15:00.954Z,85.68
2023-02-26T17:20:09.826Z,85.81
2023-02-26T17:25:21.080Z,86.06
2023-02-26T17:30:32.606Z,86.76
2023-02-26T17:35:39.243Z,88.31
2023-02-26T17:40:47.817Z,89.68
2023-02-26T17:45:53.744Z,90.56
2023-02-26T17:50:59.964Z,91.28
2023-02-26T17:56:08.775Z,91.12
2023-02-26T18:01:14.620Z,91.03
2023-02-26T18:06:21.519Z,91.20
2023-02-26T18:11:28.295Z,91.13
2023-02-26T18:16:39.189Z,90.49
2023-02-26T18:21:46.370Z,89.90
2023-02-26T18:26:52.774Z,89.50
2023-02-26T18:32:00.654Z,89.88
2023-02-26T18:37:11.218Z,90.22
2023-02-26T18:42:23.118Z,90.49
2023-02-26T18:47:29.515Z,90.64
2023-02-26T18:52:36.140Z,90.69
2023-02-26T18:57:43.236Z,90.69
2023-02-26T19:02:50.169Z,90.03
2023-02-26T19:07:56.427Z,88.81
2023-02-26T19:13:02.936Z,87.88
2023-02-26T19:18:10.313Z,87.30
2023-02-26T19:23:16.032Z,86.19
2023-02-26T19:28:23.060Z,85.58
2023-02-26T19:33:29.258Z,85.91
2023-02-26T19:38:35.423Z,86.23
2023-02-26T19:43:41.726Z,86.04
2023-02-26T19:48:47.561Z,85.80
2023-02-26T19:53:53.541Z,85.59
2023-02-26T19:58:59.668Z,85.07
2023-02-26T20:04:06.180Z,84.77
2023-02-26T20:09:12.882Z,84.19
2023-02-26T20:14:19.548Z,83.11
2023-02-26T20:19:25.530Z,82.97
2023-02-26T20:24:33.040Z,82.27
2023-02-26T20:29:39.064Z,81.54
2023-02-26T20:34:45.398Z,82.25
2023-02-26T20:39:51.195Z,81.59
2023-02-26T20:44:57.257Z,81.49
2023-02-26T20:50:03.146Z,80.86
2023-02-26T20:55:10.942Z,80.94
2023-02-26T21:00:18.817Z,79.96
2023-02-26T21:05:26.904Z,79.97
2023-02-26T21:10:33.419Z,79.56
2023-02-26T21:15:40.343Z,79.26
2023-02-26T21:20:50.900Z,79.34
2023-02-26T21:25:57.073Z,79.16
2023-02-26T21:31:02.879Z,78.92
2023-02-26T21:36:11.909Z,78.73
2023-02-26T21:41:17.979Z,78.59
2023-02-26T21:46:24.116Z,78.99
2023-02-26T21:51:30.109Z,79.48
2023-02-26T21:56:36.301Z,79.58
2023-02-26T22:01:42.036Z,79.43
2023-02-26T22:06:47.837Z,79.58
2023-02-26T22:11:54.103Z,79.63
2023-02-26T22:16:59.945Z,79.73
2023-02-26T22:22:06.721Z,79.77
2023-02-26T22:27:13.114Z,80.26
2023-02-26T22:32:19.056Z,80.64
2023-02-26T22:37:25.042Z,80.96
2023-02-26T22:42:31.324Z,81.38
2023-02-26T22:47:37.112Z,81.65
2023-02-26T22:52:43.410Z,81.94
2023-02-26T22:57:49.584Z,82.35
2023-02-26T23:02:55.781Z,83.01
2023-02-26T23:08:01.552Z,83.45
2023-02-26T23:13:07.384Z,83.63
2023-02-26T23:18:13.322Z,83.97
2023-02-26T23:23:19.110Z,84.49
2023-02-26T23:28:25.505Z,84.58
2023-02-26T23:33:31.576Z,85.39
2023-02-26T23:38:37.749Z,85.23
2023-02-26T23:43:43.427Z,84.93
2023-02-26T23:48:49.012Z,84.69
2023-02-26T23:53:54.768Z,84.41
2023-02-26T23:59:01.202Z,84.43
